sensor_id;sensor_type;location;lat;lon;timestamp;P1;durP1;ratioP1;P2;durP2;ratioP2
29570;SDS011;16814;52.118;11.436;2022-11-23T00:01:21;45.50;;;20.83;;
29570;SDS011;16814;52.118;11.436;2022-11-23T00:03:49;44.88;;;22.23;;
29570;SDS011;16814;52.118;11.436;2022-11-23T00:06:18;45.60;;;20.60;;
29570;SDS011;16814;52.118;11.436;2022-11-23T00:08:47;46.20;;;21.23;;
29570;SDS011;16814;52.118;11.436;2022-11-23T00:11:14;44.67;;;21.60;;
29570;SDS011;16814;52.118;11.436;2022-11-23T00:13:40;44.88;;;20.65;;
29570;SDS011;16814;52.118;11.436;2022-11-23T00:16:07;43.17;;;20.85;;
29570;SDS011;16814;52.118;11.436;2022-11-23T00:18:47;47.15;;;20.35;;
29570;SDS011;16814;52.118;11.436;2022-11-23T00:21:16;42.50;;;20.45;;
29570;SDS011;16814;52.118;11.436;2022-11-23T00:23:43;44.25;;;22.52;;
29570;SDS011;16814;52.118;11.436;2022-11-23T00:26:10;51.28;;;23.40;;
29570;SDS011;16814;52.118;11.436;2022-11-23T00:28:36;44.95;;;22.23;;
29570;SDS011;16814;52.118;11.436;2022-11-23T00:31:07;50.75;;;24.08;;
29570;SDS011;16814;52.118;11.436;2022-11-23T00:33:39;75.93;;;33.33;;
29570;SDS011;16814;52.118;11.436;2022-11-23T00:36:09;69.72;;;30.70;;
29570;SDS011;16814;52.118;11.436;2022-11-23T00:38:39;62.38;;;28.13;;
29570;SDS011;16814;52.118;11.436;2022-11-23T00:41:07;64.43;;;28.67;;
29570;SDS011;16814;52.118;11.436;2022-11-23T00:43:35;57.15;;;27.48;;
29570;SDS011;16814;52.118;11.436;2022-11-23T00:46:14;50.35;;;26.42;;
29570;SDS011;16814;52.118;11.436;2022-11-23T00:48:46;50.37;;;23.40;;
29570;SDS011;16814;52.118;11.436;2022-11-23T00:51:15;51.42;;;23.27;;
29570;SDS011;16814;52.118;11.436;2022-11-23T00:53:43;53.83;;;23.10;;
29570;SDS011;16814;52.118;11.436;2022-11-23T00:56:09;48.45;;;22.25;;
29570;SDS011;16814;52.118;11.436;2022-11-23T00:58:36;48.50;;;22.63;;
29570;SDS011;16814;52.118;11.436;2022-11-23T01:01:06;47.60;;;22.20;;
29570;SDS011;16814;52.118;11.436;2022-11-23T01:03:37;48.73;;;21.83;;
29570;SDS011;16814;52.118;11.436;2022-11-23T01:06:07;52.15;;;23.88;;
29570;SDS011;16814;52.118;11.436;2022-11-23T01:08:40;54.27;;;23.37;;
29570;SDS011;16814;52.118;11.436;2022-11-23T01:11:07;53.20;;;24.05;;
29570;SDS011;16814;52.118;11.436;2022-11-23T01:13:36;49.60;;;22.17;;
29570;SDS011;16814;52.118;11.436;2022-11-23T01:16:02;50.40;;;22.35;;
29570;SDS011;16814;52.118;11.436;2022-11-23T01:18:29;47.60;;;21.35;;
29570;SDS011;16814;52.118;11.436;2022-11-23T01:21:03;45.00;;;21.65;;
29570;SDS011;16814;52.118;11.436;2022-11-23T01:23:29;49.15;;;21.75;;
29570;SDS011;16814;52.118;11.436;2022-11-23T01:25:56;44.63;;;20.27;;
29570;SDS011;16814;52.118;11.436;2022-11-23T01:28:28;43.22;;;20.38;;
29570;SDS011;16814;52.118;11.436;2022-11-23T01:30:54;39.72;;;19.83;;
29570;SDS011;16814;52.118;11.436;2022-11-23T01:33:26;37.60;;;18.83;;
29570;SDS011;16814;52.118;11.436;2022-11-23T01:35:53;40.78;;;17.90;;
29570;SDS011;16814;52.118;11.436;2022-11-23T01:38:18;37.78;;;17.33;;
29570;SDS011;16814;52.118;11.436;2022-11-23T01:40:44;35.50;;;17.00;;
29570;SDS011;16814;52.118;11.436;2022-11-23T01:43:13;37.53;;;17.27;;
29570;SDS011;16814;52.118;11.436;2022-11-23T01:45:41;30.00;;;15.65;;
29570;SDS011;16814;52.118;11.436;2022-11-23T01:48:27;33.87;;;16.17;;
29570;SDS011;16814;52.118;11.436;2022-11-23T01:51:14;33.20;;;15.53;;
29570;SDS011;16814;52.118;11.436;2022-11-23T01:53:45;31.83;;;15.30;;
29570;SDS011;16814;52.118;11.436;2022-11-23T01:56:17;34.17;;;16.48;;
29570;SDS011;16814;52.118;11.436;2022-11-23T01:58:49;32.90;;;15.68;;
29570;SDS011;16814;52.118;11.436;2022-11-23T02:01:17;37.03;;;15.82;;
29570;SDS011;16814;52.118;11.436;2022-11-23T02:03:45;30.23;;;15.00;;
29570;SDS011;16814;52.118;11.436;2022-11-23T02:06:18;32.47;;;15.40;;
29570;SDS011;16814;52.118;11.436;2022-11-23T02:08:48;31.00;;;15.23;;
29570;SDS011;16814;52.118;11.436;2022-11-23T02:11:15;31.10;;;15.07;;
29570;SDS011;16814;52.118;11.436;2022-11-23T02:13:44;30.50;;;14.77;;
29570;SDS011;16814;52.118;11.436;2022-11-23T02:16:16;36.30;;;16.27;;
29570;SDS011;16814;52.118;11.436;2022-11-23T02:18:43;32.78;;;15.18;;
29570;SDS011;16814;52.118;11.436;2022-11-23T02:21:11;35.08;;;14.90;;
29570;SDS011;16814;52.118;11.436;2022-11-23T02:26:27;30.60;;;15.20;;
29570;SDS011;16814;52.118;11.436;2022-11-23T02:31:46;34.97;;;15.23;;
29570;SDS011;16814;52.118;11.436;2022-11-23T02:34:15;27.48;;;13.75;;
29570;SDS011;16814;52.118;11.436;2022-11-23T02:36:44;33.72;;;13.60;;
29570;SDS011;16814;52.118;11.436;2022-11-23T02:39:20;28.38;;;13.27;;
29570;SDS011;16814;52.118;11.436;2022-11-23T02:41:55;28.13;;;13.10;;
29570;SDS011;16814;52.118;11.436;2022-11-23T02:47:08;32.00;;;14.23;;
29570;SDS011;16814;52.118;11.436;2022-11-23T02:49:38;29.73;;;13.53;;
29570;SDS011;16814;52.118;11.436;2022-11-23T02:52:09;29.52;;;12.73;;
29570;SDS011;16814;52.118;11.436;2022-11-23T02:54:38;27.73;;;12.85;;
29570;SDS011;16814;52.118;11.436;2022-11-23T02:57:04;32.33;;;13.05;;
29570;SDS011;16814;52.118;11.436;2022-11-23T02:59:30;29.80;;;13.50;;
29570;SDS011;16814;52.118;11.436;2022-11-23T03:01:57;29.67;;;12.07;;
29570;SDS011;16814;52.118;11.436;2022-11-23T03:04:24;30.52;;;12.60;;
29570;SDS011;16814;52.118;11.436;2022-11-23T03:06:50;26.30;;;13.38;;
29570;SDS011;16814;52.118;11.436;2022-11-23T03:09:15;26.92;;;11.68;;
29570;SDS011;16814;52.118;11.436;2022-11-23T03:11:44;24.85;;;12.32;;
29570;SDS011;16814;52.118;11.436;2022-11-23T03:14:09;28.15;;;12.32;;
29570;SDS011;16814;52.118;11.436;2022-11-23T03:16:37;32.22;;;13.25;;
29570;SDS011;16814;52.118;11.436;2022-11-23T03:19:04;29.83;;;13.20;;
29570;SDS011;16814;52.118;11.436;2022-11-23T03:21:30;31.13;;;13.73;;
29570;SDS011;16814;52.118;11.436;2022-11-23T03:23:56;28.45;;;12.98;;
29570;SDS011;16814;52.118;11.436;2022-11-23T03:26:24;29.85;;;13.45;;
29570;SDS011;16814;52.118;11.436;2022-11-23T03:28:53;31.13;;;13.52;;
29570;SDS011;16814;52.118;11.436;2022-11-23T03:31:20;27.80;;;13.70;;
29570;SDS011;16814;52.118;11.436;2022-11-23T03:33:46;28.90;;;13.70;;
29570;SDS011;16814;52.118;11.436;2022-11-23T03:36:12;32.58;;;13.73;;
29570;SDS011;16814;52.118;11.436;2022-11-23T03:38:38;32.17;;;14.73;;
29570;SDS011;16814;52.118;11.436;2022-11-23T03:41:04;32.33;;;13.85;;
29570;SDS011;16814;52.118;11.436;2022-11-23T03:43:30;36.97;;;15.10;;
29570;SDS011;16814;52.118;11.436;2022-11-23T03:45:55;38.87;;;15.47;;
29570;SDS011;16814;52.118;11.436;2022-11-23T03:48:21;37.28;;;16.00;;
29570;SDS011;16814;52.118;11.436;2022-11-23T03:50:48;34.20;;;14.80;;
29570;SDS011;16814;52.118;11.436;2022-11-23T03:53:14;32.87;;;14.57;;
29570;SDS011;16814;52.118;11.436;2022-11-23T03:55:44;28.88;;;13.60;;
29570;SDS011;16814;52.118;11.436;2022-11-23T03:58:11;29.38;;;12.88;;
29570;SDS011;16814;52.118;11.436;2022-11-23T04:00:38;25.98;;;12.38;;
29570;SDS011;16814;52.118;11.436;2022-11-23T04:03:04;30.58;;;12.10;;
29570;SDS011;16814;52.118;11.436;2022-11-23T04:05:30;29.97;;;12.97;;
29570;SDS011;16814;52.118;11.436;2022-11-23T04:07:55;27.85;;;12.85;;
29570;SDS011;16814;52.118;11.436;2022-11-23T04:10:21;27.93;;;12.07;;
29570;SDS011;16814;52.118;11.436;2022-11-23T04:12:51;29.08;;;12.27;;
29570;SDS011;16814;52.118;11.436;2022-11-23T04:15:19;27.17;;;10.90;;
29570;SDS011;16814;52.118;11.436;2022-11-23T04:17:47;25.30;;;10.68;;
29570;SDS011;16814;52.118;11.436;2022-11-23T04:20:15;23.90;;;10.82;;
29570;SDS011;16814;52.118;11.436;2022-11-23T04:22:43;27.60;;;11.55;;
29570;SDS011;16814;52.118;11.436;2022-11-23T04:25:10;29.13;;;11.07;;
29570;SDS011;16814;52.118;11.436;2022-11-23T04:27:37;21.02;;;9.98;;
29570;SDS011;16814;52.118;11.436;2022-11-23T04:30:03;21.50;;;10.43;;
29570;SDS011;16814;52.118;11.436;2022-11-23T04:32:33;23.75;;;10.50;;
29570;SDS011;16814;52.118;11.436;2022-11-23T04:34:58;25.73;;;11.38;;
29570;SDS011;16814;52.118;11.436;2022-11-23T04:37:25;23.63;;;10.48;;
29570;SDS011;16814;52.118;11.436;2022-11-23T04:39:52;23.80;;;11.03;;
29570;SDS011;16814;52.118;11.436;2022-11-23T04:42:19;28.45;;;11.43;;
29570;SDS011;16814;52.118;11.436;2022-11-23T04:44:45;22.77;;;10.77;;
29570;SDS011;16814;52.118;11.436;2022-11-23T04:47:20;27.63;;;11.40;;
29570;SDS011;16814;52.118;11.436;2022-11-23T04:49:46;24.00;;;11.53;;
29570;SDS011;16814;52.118;11.436;2022-11-23T04:52:11;23.40;;;10.80;;
29570;SDS011;16814;52.118;11.436;2022-11-23T04:54:40;23.20;;;10.98;;
29570;SDS011;16814;52.118;11.436;2022-11-23T04:57:07;23.93;;;11.37;;
29570;SDS011;16814;52.118;11.436;2022-11-23T04:59:36;24.73;;;11.07;;
29570;SDS011;16814;52.118;11.436;2022-11-23T05:02:02;23.80;;;11.07;;
29570;SDS011;16814;52.118;11.436;2022-11-23T05:04:29;26.02;;;11.52;;
29570;SDS011;16814;52.118;11.436;2022-11-23T05:06:59;26.33;;;12.20;;
29570;SDS011;16814;52.118;11.436;2022-11-23T05:09:26;20.33;;;11.00;;
29570;SDS011;16814;52.118;11.436;2022-11-23T05:11:52;26.55;;;12.10;;
29570;SDS011;16814;52.118;11.436;2022-11-23T05:14:19;23.70;;;11.60;;
29570;SDS011;16814;52.118;11.436;2022-11-23T05:16:46;24.00;;;10.57;;
29570;SDS011;16814;52.118;11.436;2022-11-23T05:19:12;21.48;;;10.73;;
29570;SDS011;16814;52.118;11.436;2022-11-23T05:21:39;21.70;;;10.37;;
29570;SDS011;16814;52.118;11.436;2022-11-23T05:24:07;24.35;;;11.20;;
29570;SDS011;16814;52.118;11.436;2022-11-23T05:26:33;23.65;;;11.25;;
29570;SDS011;16814;52.118;11.436;2022-11-23T05:28:58;23.67;;;11.07;;
29570;SDS011;16814;52.118;11.436;2022-11-23T05:31:25;24.00;;;11.23;;
29570;SDS011;16814;52.118;11.436;2022-11-23T05:33:52;24.15;;;10.80;;
29570;SDS011;16814;52.118;11.436;2022-11-23T05:36:18;28.63;;;11.90;;
29570;SDS011;16814;52.118;11.436;2022-11-23T05:38:44;22.80;;;10.87;;
29570;SDS011;16814;52.118;11.436;2022-11-23T05:41:10;26.43;;;11.33;;
29570;SDS011;16814;52.118;11.436;2022-11-23T05:43:38;26.20;;;11.60;;
29570;SDS011;16814;52.118;11.436;2022-11-23T05:46:05;29.45;;;12.95;;
29570;SDS011;16814;52.118;11.436;2022-11-23T05:48:32;33.40;;;13.87;;
29570;SDS011;16814;52.118;11.436;2022-11-23T05:50:59;30.20;;;13.07;;
29570;SDS011;16814;52.118;11.436;2022-11-23T05:53:25;27.65;;;13.10;;
29570;SDS011;16814;52.118;11.436;2022-11-23T05:55:51;24.13;;;12.23;;
29570;SDS011;16814;52.118;11.436;2022-11-23T05:58:17;25.70;;;11.90;;
29570;SDS011;16814;52.118;11.436;2022-11-23T06:00:42;23.40;;;11.20;;
29570;SDS011;16814;52.118;11.436;2022-11-23T06:03:10;29.67;;;11.63;;
29570;SDS011;16814;52.118;11.436;2022-11-23T06:05:36;21.80;;;10.83;;
29570;SDS011;16814;52.118;11.436;2022-11-23T06:08:03;24.48;;;11.25;;
29570;SDS011;16814;52.118;11.436;2022-11-23T06:10:30;28.80;;;11.35;;
29570;SDS011;16814;52.118;11.436;2022-11-23T06:13:00;27.33;;;10.75;;
29570;SDS011;16814;52.118;11.436;2022-11-23T06:15:28;23.08;;;10.90;;
29570;SDS011;16814;52.118;11.436;2022-11-23T06:17:59;27.50;;;11.85;;
29570;SDS011;16814;52.118;11.436;2022-11-23T06:20:29;22.52;;;10.85;;
29570;SDS011;16814;52.118;11.436;2022-11-23T06:23:04;22.85;;;10.88;;
29570;SDS011;16814;52.118;11.436;2022-11-23T06:25:31;25.17;;;11.02;;
29570;SDS011;16814;52.118;11.436;2022-11-23T06:28:01;26.92;;;11.52;;
29570;SDS011;16814;52.118;11.436;2022-11-23T06:30:30;26.73;;;11.35;;
29570;SDS011;16814;52.118;11.436;2022-11-23T06:32:55;23.17;;;11.05;;
29570;SDS011;16814;52.118;11.436;2022-11-23T06:35:21;27.50;;;12.80;;
29570;SDS011;16814;52.118;11.436;2022-11-23T06:37:49;23.00;;;11.23;;
29570;SDS011;16814;52.118;11.436;2022-11-23T06:40:18;26.30;;;11.88;;
29570;SDS011;16814;52.118;11.436;2022-11-23T06:42:45;23.05;;;11.60;;
29570;SDS011;16814;52.118;11.436;2022-11-23T06:45:12;23.77;;;11.65;;
29570;SDS011;16814;52.118;11.436;2022-11-23T06:47:39;25.97;;;11.40;;
29570;SDS011;16814;52.118;11.436;2022-11-23T06:50:06;24.33;;;11.60;;
29570;SDS011;16814;52.118;11.436;2022-11-23T06:52:34;25.03;;;11.37;;
29570;SDS011;16814;52.118;11.436;2022-11-23T06:55:00;28.88;;;12.00;;
29570;SDS011;16814;52.118;11.436;2022-11-23T06:57:25;28.15;;;12.38;;
29570;SDS011;16814;52.118;11.436;2022-11-23T06:59:51;22.97;;;11.90;;
29570;SDS011;16814;52.118;11.436;2022-11-23T07:02:20;25.95;;;11.60;;
29570;SDS011;16814;52.118;11.436;2022-11-23T07:04:49;25.38;;;11.52;;
29570;SDS011;16814;52.118;11.436;2022-11-23T07:07:18;24.42;;;11.02;;
29570;SDS011;16814;52.118;11.436;2022-11-23T07:09:45;25.57;;;10.63;;
29570;SDS011;16814;52.118;11.436;2022-11-23T07:12:13;22.95;;;11.20;;
29570;SDS011;16814;52.118;11.436;2022-11-23T07:14:41;24.00;;;11.05;;
29570;SDS011;16814;52.118;11.436;2022-11-23T07:17:07;20.73;;;10.85;;
29570;SDS011;16814;52.118;11.436;2022-11-23T07:19:34;22.57;;;10.20;;
29570;SDS011;16814;52.118;11.436;2022-11-23T07:22:01;22.10;;;10.27;;
29570;SDS011;16814;52.118;11.436;2022-11-23T07:24:28;23.15;;;10.05;;
29570;SDS011;16814;52.118;11.436;2022-11-23T07:27:00;27.33;;;9.95;;
29570;SDS011;16814;52.118;11.436;2022-11-23T07:29:27;20.50;;;10.05;;
29570;SDS011;16814;52.118;11.436;2022-11-23T07:31:55;22.27;;;9.40;;
29570;SDS011;16814;52.118;11.436;2022-11-23T07:34:21;19.80;;;9.48;;
29570;SDS011;16814;52.118;11.436;2022-11-23T07:36:46;18.70;;;8.85;;
29570;SDS011;16814;52.118;11.436;2022-11-23T07:39:13;17.60;;;8.93;;
29570;SDS011;16814;52.118;11.436;2022-11-23T07:41:41;19.65;;;8.70;;
29570;SDS011;16814;52.118;11.436;2022-11-23T07:44:07;20.52;;;9.50;;
29570;SDS011;16814;52.118;11.436;2022-11-23T07:46:33;19.08;;;8.45;;
29570;SDS011;16814;52.118;11.436;2022-11-23T07:49:00;18.73;;;8.07;;
29570;SDS011;16814;52.118;11.436;2022-11-23T07:51:27;17.98;;;7.88;;
29570;SDS011;16814;52.118;11.436;2022-11-23T07:53:53;17.08;;;7.63;;
29570;SDS011;16814;52.118;11.436;2022-11-23T07:56:20;19.05;;;8.07;;
29570;SDS011;16814;52.118;11.436;2022-11-23T07:58:53;19.23;;;7.77;;
29570;SDS011;16814;52.118;11.436;2022-11-23T08:01:20;21.23;;;8.70;;
29570;SDS011;16814;52.118;11.436;2022-11-23T08:03:46;17.52;;;8.20;;
29570;SDS011;16814;52.118;11.436;2022-11-23T08:06:13;15.57;;;7.97;;
29570;SDS011;16814;52.118;11.436;2022-11-23T08:08:42;16.80;;;7.78;;
29570;SDS011;16814;52.118;11.436;2022-11-23T08:11:09;22.65;;;8.52;;
29570;SDS011;16814;52.118;11.436;2022-11-23T08:13:38;17.15;;;8.10;;
29570;SDS011;16814;52.118;11.436;2022-11-23T08:16:07;17.75;;;8.60;;
29570;SDS011;16814;52.118;11.436;2022-11-23T08:18:33;17.15;;;8.60;;
29570;SDS011;16814;52.118;11.436;2022-11-23T08:21:00;23.40;;;8.80;;
29570;SDS011;16814;52.118;11.436;2022-11-23T08:23:28;20.13;;;8.40;;
29570;SDS011;16814;52.118;11.436;2022-11-23T08:25:55;15.43;;;8.27;;
29570;SDS011;16814;52.118;11.436;2022-11-23T08:28:21;16.03;;;8.13;;
29570;SDS011;16814;52.118;11.436;2022-11-23T08:30:47;17.50;;;8.10;;
29570;SDS011;16814;52.118;11.436;2022-11-23T08:33:13;19.67;;;8.32;;
29570;SDS011;16814;52.118;11.436;2022-11-23T08:35:40;20.95;;;8.38;;
29570;SDS011;16814;52.118;11.436;2022-11-23T08:38:07;22.15;;;8.93;;
29570;SDS011;16814;52.118;11.436;2022-11-23T08:40:34;19.73;;;7.95;;
29570;SDS011;16814;52.118;11.436;2022-11-23T08:43:00;17.58;;;8.18;;
29570;SDS011;16814;52.118;11.436;2022-11-23T08:45:26;24.27;;;9.00;;
29570;SDS011;16814;52.118;11.436;2022-11-23T08:47:52;18.75;;;8.02;;
29570;SDS011;16814;52.118;11.436;2022-11-23T08:50:18;15.90;;;7.80;;
29570;SDS011;16814;52.118;11.436;2022-11-23T08:52:44;18.42;;;7.82;;
29570;SDS011;16814;52.118;11.436;2022-11-23T08:55:12;16.50;;;7.50;;
29570;SDS011;16814;52.118;11.436;2022-11-23T08:57:38;16.33;;;7.75;;
29570;SDS011;16814;52.118;11.436;2022-11-23T09:00:04;19.93;;;7.50;;
29570;SDS011;16814;52.118;11.436;2022-11-23T09:02:30;14.60;;;7.53;;
29570;SDS011;16814;52.118;11.436;2022-11-23T09:04:56;17.85;;;7.38;;
29570;SDS011;16814;52.118;11.436;2022-11-23T09:07:21;17.53;;;7.53;;
29570;SDS011;16814;52.118;11.436;2022-11-23T09:09:47;16.85;;;7.15;;
29570;SDS011;16814;52.118;11.436;2022-11-23T09:12:13;18.20;;;7.33;;
29570;SDS011;16814;52.118;11.436;2022-11-23T09:14:38;20.50;;;7.13;;
29570;SDS011;16814;52.118;11.436;2022-11-23T09:17:04;17.83;;;7.43;;
29570;SDS011;16814;52.118;11.436;2022-11-23T09:19:29;15.98;;;7.07;;
29570;SDS011;16814;52.118;11.436;2022-11-23T09:21:55;17.40;;;7.13;;
29570;SDS011;16814;52.118;11.436;2022-11-23T09:24:21;18.88;;;7.07;;
29570;SDS011;16814;52.118;11.436;2022-11-23T09:26:47;17.17;;;6.83;;
29570;SDS011;16814;52.118;11.436;2022-11-23T09:29:13;16.85;;;7.28;;
29570;SDS011;16814;52.118;11.436;2022-11-23T09:31:38;16.53;;;7.23;;
29570;SDS011;16814;52.118;11.436;2022-11-23T09:34:04;12.80;;;6.50;;
29570;SDS011;16814;52.118;11.436;2022-11-23T09:36:30;13.00;;;6.80;;
29570;SDS011;16814;52.118;11.436;2022-11-23T09:38:56;12.20;;;6.30;;
29570;SDS011;16814;52.118;11.436;2022-11-23T09:47:28;15.45;;;6.32;;
29570;SDS011;16814;52.118;11.436;2022-11-23T09:52:52;14.43;;;5.90;;
29570;SDS011;16814;52.118;11.436;2022-11-23T09:55:20;14.75;;;6.05;;
29570;SDS011;16814;52.118;11.436;2022-11-23T09:57:58;13.77;;;5.53;;
29570;SDS011;16814;52.118;11.436;2022-11-23T10:00:28;16.35;;;5.95;;
29570;SDS011;16814;52.118;11.436;2022-11-23T10:03:13;12.20;;;6.13;;
29570;SDS011;16814;52.118;11.436;2022-11-23T10:05:41;15.35;;;5.95;;
29570;SDS011;16814;52.118;11.436;2022-11-23T10:08:18;12.15;;;5.75;;
29570;SDS011;16814;52.118;11.436;2022-11-23T10:17:00;12.90;;;5.90;;
29570;SDS011;16814;52.118;11.436;2022-11-23T10:22:45;14.80;;;6.15;;
29570;SDS011;16814;52.118;11.436;2022-11-23T10:25:18;11.27;;;5.50;;
29570;SDS011;16814;52.118;11.436;2022-11-23T10:27:45;12.52;;;5.10;;
29570;SDS011;16814;52.118;11.436;2022-11-23T10:30:13;16.73;;;5.75;;
29570;SDS011;16814;52.118;11.436;2022-11-23T10:32:42;10.27;;;5.40;;
29570;SDS011;16814;52.118;11.436;2022-11-23T10:35:32;15.05;;;5.18;;
29570;SDS011;16814;52.118;11.436;2022-11-23T10:38:08;13.52;;;5.60;;
29570;SDS011;16814;52.118;11.436;2022-11-23T10:40:40;13.20;;;5.30;;
29570;SDS011;16814;52.118;11.436;2022-11-23T10:43:21;15.63;;;5.32;;
29570;SDS011;16814;52.118;11.436;2022-11-23T10:45:49;16.43;;;5.60;;
29570;SDS011;16814;52.118;11.436;2022-11-23T10:48:32;14.98;;;5.57;;
29570;SDS011;16814;52.118;11.436;2022-11-23T10:53:53;11.35;;;5.50;;
29570;SDS011;16814;52.118;11.436;2022-11-23T10:56:22;14.80;;;5.87;;
29570;SDS011;16814;52.118;11.436;2022-11-23T10:58:48;17.13;;;5.53;;
29570;SDS011;16814;52.118;11.436;2022-11-23T11:03:50;10.93;;;4.72;;
29570;SDS011;16814;52.118;11.436;2022-11-23T11:06:23;13.82;;;5.55;;
29570;SDS011;16814;52.118;11.436;2022-11-23T11:11:32;13.30;;;5.40;;
29570;SDS011;16814;52.118;11.436;2022-11-23T11:14:21;12.05;;;5.30;;
29570;SDS011;16814;52.118;11.436;2022-11-23T11:16:53;12.07;;;5.10;;
29570;SDS011;16814;52.118;11.436;2022-11-23T11:19:29;15.98;;;4.97;;
29570;SDS011;16814;52.118;11.436;2022-11-23T11:22:00;10.88;;;4.50;;
29570;SDS011;16814;52.118;11.436;2022-11-23T11:24:50;14.57;;;3.92;;
29570;SDS011;16814;52.118;11.436;2022-11-23T11:27:19;7.18;;;3.85;;
29570;SDS011;16814;52.118;11.436;2022-11-23T11:29:49;13.57;;;3.97;;
29570;SDS011;16814;52.118;11.436;2022-11-23T11:32:28;13.00;;;3.92;;
29570;SDS011;16814;52.118;11.436;2022-11-23T11:35:03;12.07;;;3.53;;
29570;SDS011;16814;52.118;11.436;2022-11-23T11:37:45;13.60;;;3.10;;
29570;SDS011;16814;52.118;11.436;2022-11-23T11:40:20;13.10;;;3.03;;
29570;SDS011;16814;52.118;11.436;2022-11-23T11:43:04;8.77;;;2.70;;
29570;SDS011;16814;52.118;11.436;2022-11-23T11:45:50;12.82;;;3.45;;
29570;SDS011;16814;52.118;11.436;2022-11-23T11:51:21;9.45;;;2.95;;
29570;SDS011;16814;52.118;11.436;2022-11-23T11:56:49;12.77;;;3.20;;
29570;SDS011;16814;52.118;11.436;2022-11-23T11:59:25;11.82;;;2.78;;
29570;SDS011;16814;52.118;11.436;2022-11-23T12:02:28;12.05;;;2.78;;
29570;SDS011;16814;52.118;11.436;2022-11-23T12:05:12;11.05;;;2.80;;
29570;SDS011;16814;52.118;11.436;2022-11-23T12:07:49;10.18;;;2.67;;
29570;SDS011;16814;52.118;11.436;2022-11-23T12:10:37;12.18;;;3.72;;
29570;SDS011;16814;52.118;11.436;2022-11-23T12:13:23;10.20;;;3.15;;
29570;SDS011;16814;52.118;11.436;2022-11-23T12:15:55;14.57;;;3.90;;
29570;SDS011;16814;52.118;11.436;2022-11-23T12:30:15;11.48;;;2.97;;
29570;SDS011;16814;52.118;11.436;2022-11-23T12:38:45;10.02;;;3.10;;
29570;SDS011;16814;52.118;11.436;2022-11-23T12:41:47;11.15;;;3.25;;
29570;SDS011;16814;52.118;11.436;2022-11-23T12:44:56;9.20;;;2.83;;
29570;SDS011;16814;52.118;11.436;2022-11-23T12:50:37;10.23;;;3.15;;
29570;SDS011;16814;52.118;11.436;2022-11-23T12:56:47;10.93;;;3.38;;
29570;SDS011;16814;52.118;11.436;2022-11-23T12:59:38;10.40;;;3.65;;
29570;SDS011;16814;52.118;11.436;2022-11-23T13:05:41;9.40;;;2.97;;
29570;SDS011;16814;52.118;11.436;2022-11-23T13:11:35;12.77;;;3.00;;
29570;SDS011;16814;52.118;11.436;2022-11-23T13:20:15;9.65;;;3.20;;
29570;SDS011;16814;52.118;11.436;2022-11-23T13:23:14;9.90;;;3.20;;
29570;SDS011;16814;52.118;11.436;2022-11-23T13:28:45;10.48;;;2.95;;
29570;SDS011;16814;52.118;11.436;2022-11-23T13:31:23;10.95;;;2.70;;
29570;SDS011;16814;52.118;11.436;2022-11-23T13:34:00;11.70;;;2.97;;
29570;SDS011;16814;52.118;11.436;2022-11-23T13:36:59;10.80;;;3.60;;
29570;SDS011;16814;52.118;11.436;2022-11-23T13:39:58;9.73;;;4.25;;
29570;SDS011;16814;52.118;11.436;2022-11-23T13:42:25;12.55;;;3.17;;
29570;SDS011;16814;52.118;11.436;2022-11-23T13:47:39;13.98;;;3.97;;
29570;SDS011;16814;52.118;11.436;2022-11-23T13:50:08;12.18;;;3.60;;
29570;SDS011;16814;52.118;11.436;2022-11-23T13:52:49;8.95;;;2.88;;
29570;SDS011;16814;52.118;11.436;2022-11-23T13:55:20;10.27;;;2.58;;
29570;SDS011;16814;52.118;11.436;2022-11-23T14:11:53;13.48;;;4.10;;
29570;SDS011;16814;52.118;11.436;2022-11-23T14:14:31;8.95;;;3.58;;
29570;SDS011;16814;52.118;11.436;2022-11-23T14:17:27;12.30;;;3.63;;
29570;SDS011;16814;52.118;11.436;2022-11-23T14:23:13;12.80;;;3.55;;
29570;SDS011;16814;52.118;11.436;2022-11-23T14:31:35;11.93;;;3.40;;
29570;SDS011;16814;52.118;11.436;2022-11-23T14:34:31;7.72;;;2.78;;
29570;SDS011;16814;52.118;11.436;2022-11-23T14:43:26;7.82;;;2.80;;
29570;SDS011;16814;52.118;11.436;2022-11-23T14:45:59;9.85;;;2.90;;
29570;SDS011;16814;52.118;11.436;2022-11-23T14:48:32;8.30;;;2.70;;
29570;SDS011;16814;52.118;11.436;2022-11-23T14:51:00;14.85;;;5.25;;
29570;SDS011;16814;52.118;11.436;2022-11-23T14:53:47;19.83;;;8.85;;
29570;SDS011;16814;52.118;11.436;2022-11-23T14:58:55;33.08;;;15.13;;
29570;SDS011;16814;52.118;11.436;2022-11-23T15:01:29;34.40;;;17.13;;
29570;SDS011;16814;52.118;11.436;2022-11-23T15:04:05;43.60;;;21.23;;
29570;SDS011;16814;52.118;11.436;2022-11-23T15:07:02;43.30;;;22.43;;
29570;SDS011;16814;52.118;11.436;2022-11-23T15:12:42;39.50;;;19.73;;
29570;SDS011;16814;52.118;11.436;2022-11-23T15:15:17;41.30;;;19.30;;
29570;SDS011;16814;52.118;11.436;2022-11-23T15:17:55;33.72;;;12.25;;
29570;SDS011;16814;52.118;11.436;2022-11-23T15:20:26;28.15;;;11.75;;
29570;SDS011;16814;52.118;11.436;2022-11-23T15:22:58;26.60;;;11.90;;
29570;SDS011;16814;52.118;11.436;2022-11-23T15:25:25;29.77;;;13.15;;
29570;SDS011;16814;52.118;11.436;2022-11-23T15:27:51;49.13;;;19.33;;
29570;SDS011;16814;52.118;11.436;2022-11-23T15:30:27;46.22;;;19.33;;
29570;SDS011;16814;52.118;11.436;2022-11-23T15:33:03;61.60;;;27.25;;
29570;SDS011;16814;52.118;11.436;2022-11-23T15:35:35;53.28;;;28.30;;
29570;SDS011;16814;52.118;11.436;2022-11-23T15:38:06;50.97;;;23.97;;
29570;SDS011;16814;52.118;11.436;2022-11-23T15:40:39;35.55;;;17.40;;
29570;SDS011;16814;52.118;11.436;2022-11-23T15:43:10;15.07;;;6.53;;
29570;SDS011;16814;52.118;11.436;2022-11-23T15:50:55;10.93;;;3.60;;
29570;SDS011;16814;52.118;11.436;2022-11-23T15:53:26;14.50;;;3.80;;
29570;SDS011;16814;52.118;11.436;2022-11-23T15:59:05;11.82;;;3.92;;
29570;SDS011;16814;52.118;11.436;2022-11-23T16:02:16;9.88;;;3.83;;
29570;SDS011;16814;52.118;11.436;2022-11-23T16:04:47;14.68;;;5.15;;
29570;SDS011;16814;52.118;11.436;2022-11-23T16:07:20;12.60;;;5.15;;
29570;SDS011;16814;52.118;11.436;2022-11-23T16:10:01;18.67;;;6.10;;
29570;SDS011;16814;52.118;11.436;2022-11-23T16:12:47;12.65;;;5.32;;
29570;SDS011;16814;52.118;11.436;2022-11-23T16:18:23;15.93;;;5.03;;
29570;SDS011;16814;52.118;11.436;2022-11-23T16:20:58;17.60;;;4.85;;
29570;SDS011;16814;52.118;11.436;2022-11-23T16:23:26;17.25;;;4.40;;
29570;SDS011;16814;52.118;11.436;2022-11-23T16:26:30;17.90;;;5.15;;
29570;SDS011;16814;52.118;11.436;2022-11-23T16:28:58;16.95;;;5.70;;
29570;SDS011;16814;52.118;11.436;2022-11-23T16:31:34;25.45;;;9.82;;
29570;SDS011;16814;52.118;11.436;2022-11-23T16:34:17;21.73;;;8.95;;
29570;SDS011;16814;52.118;11.436;2022-11-23T16:36:46;27.77;;;10.85;;
29570;SDS011;16814;52.118;11.436;2022-11-23T16:39:12;22.90;;;8.50;;
29570;SDS011;16814;52.118;11.436;2022-11-23T16:41:39;14.43;;;7.75;;
29570;SDS011;16814;52.118;11.436;2022-11-23T16:44:08;17.85;;;5.80;;
29570;SDS011;16814;52.118;11.436;2022-11-23T16:46:34;15.00;;;5.07;;